sensor_id;sensor_type;location;lat;lon;timestamp;P1;durP1;ratioP1;P2;durP2;ratioP2
70067;SDS011;57425;51.616;6.680;2023-07-16T17:25:37;3.15;;;1.73;;
70067;SDS011;57425;51.616;6.680;2023-07-16T17:28:03;2.75;;;1.33;;
70067;SDS011;57425;51.616;6.680;2023-07-16T17:30:29;4.03;;;1.58;;
70067;SDS011;57425;51.616;6.680;2023-07-16T17:32:54;3.05;;;1.85;;
70067;SDS011;57425;51.616;6.680;2023-07-16T17:35:20;3.72;;;1.67;;
70067;SDS011;57425;51.616;6.680;2023-07-16T17:37:46;5.18;;;1.48;;
70067;SDS011;57425;51.616;6.680;2023-07-16T17:40:11;5.10;;;1.77;;
70067;SDS011;57425;51.616;6.680;2023-07-16T17:42:39;5.47;;;1.55;;
70067;SDS011;57425;51.616;6.680;2023-07-16T17:45:06;4.00;;;2.20;;
70067;SDS011;57425;51.616;6.680;2023-07-16T17:47:32;5.28;;;1.33;;
70067;SDS011;57425;51.616;6.680;2023-07-16T17:49:58;3.75;;;1.60;;
70067;SDS011;57425;51.616;6.680;2023-07-16T17:52:23;6.60;;;1.67;;
70067;SDS011;57425;51.616;6.680;2023-07-16T17:54:49;3.67;;;1.48;;
70067;SDS011;57425;51.616;6.680;2023-07-16T17:57:15;3.42;;;1.63;;
70067;SDS011;57425;51.616;6.680;2023-07-16T17:59:40;4.57;;;1.55;;
70067;SDS011;57425;51.616;6.680;2023-07-16T18:02:06;5.60;;;1.63;;
70067;SDS011;57425;51.616;6.680;2023-07-16T18:04:34;5.38;;;2.00;;
70067;SDS011;57425;51.616;6.680;2023-07-16T18:07:00;5.50;;;1.73;;
70067;SDS011;57425;51.616;6.680;2023-07-16T18:09:25;3.72;;;1.85;;
70067;SDS011;57425;51.616;6.680;2023-07-16T18:11:52;5.88;;;2.20;;
70067;SDS011;57425;51.616;6.680;2023-07-16T18:14:17;3.75;;;1.75;;
70067;SDS011;57425;51.616;6.680;2023-07-16T18:16:43;5.32;;;1.65;;
70067;SDS011;57425;51.616;6.680;2023-07-16T18:19:09;3.70;;;1.60;;
70067;SDS011;57425;51.616;6.680;2023-07-16T18:21:37;4.40;;;1.65;;
70067;SDS011;57425;51.616;6.680;2023-07-16T18:24:03;3.55;;;1.63;;
70067;SDS011;57425;51.616;6.680;2023-07-16T18:26:30;6.03;;;1.75;;
70067;SDS011;57425;51.616;6.680;2023-07-16T18:28:55;2.58;;;1.33;;
70067;SDS011;57425;51.616;6.680;2023-07-16T18:31:22;5.13;;;1.95;;
70067;SDS011;57425;51.616;6.680;2023-07-16T18:33:48;4.13;;;2.30;;
70067;SDS011;57425;51.616;6.680;2023-07-16T18:36:15;2.78;;;1.92;;
70067;SDS011;57425;51.616;6.680;2023-07-16T18:38:40;4.68;;;2.60;;
70067;SDS011;57425;51.616;6.680;2023-07-16T18:41:06;3.42;;;1.75;;
70067;SDS011;57425;51.616;6.680;2023-07-16T18:43:33;9.00;;;2.53;;
70067;SDS011;57425;51.616;6.680;2023-07-16T18:45:59;5.72;;;2.10;;
70067;SDS011;57425;51.616;6.680;2023-07-16T18:48:24;4.97;;;1.77;;
70067;SDS011;57425;51.616;6.680;2023-07-16T18:50:50;4.25;;;1.50;;
70067;SDS011;57425;51.616;6.680;2023-07-16T18:53:16;2.65;;;1.45;;
70067;SDS011;57425;51.616;6.680;2023-07-16T18:55:42;2.90;;;1.75;;
70067;SDS011;57425;51.616;6.680;2023-07-16T18:58:08;5.03;;;2.17;;
70067;SDS011;57425;51.616;6.680;2023-07-16T19:00:34;4.40;;;1.60;;
70067;SDS011;57425;51.616;6.680;2023-07-16T19:02:59;5.82;;;2.50;;
70067;SDS011;57425;51.616;6.680;2023-07-16T19:05:26;7.50;;;2.22;;
70067;SDS011;57425;51.616;6.680;2023-07-16T19:07:52;3.10;;;1.25;;
70067;SDS011;57425;51.616;6.680;2023-07-16T19:10:17;5.30;;;2.03;;
70067;SDS011;57425;51.616;6.680;2023-07-16T19:12:43;5.07;;;2.55;;
70067;SDS011;57425;51.616;6.680;2023-07-16T19:15:08;4.85;;;2.63;;
70067;SDS011;57425;51.616;6.680;2023-07-16T19:17:34;5.45;;;2.70;;
70067;SDS011;57425;51.616;6.680;2023-07-16T19:20:00;8.13;;;3.70;;
70067;SDS011;57425;51.616;6.680;2023-07-16T19:22:26;4.85;;;2.88;;
70067;SDS011;57425;51.616;6.680;2023-07-16T19:24:53;6.35;;;3.40;;
70067;SDS011;57425;51.616;6.680;2023-07-16T19:27:20;11.25;;;3.80;;
70067;SDS011;57425;51.616;6.680;2023-07-16T19:29:47;10.45;;;3.03;;
70067;SDS011;57425;51.616;6.680;2023-07-16T19:32:13;5.15;;;2.33;;
70067;SDS011;57425;51.616;6.680;2023-07-16T19:34:38;5.45;;;2.10;;
70067;SDS011;57425;51.616;6.680;2023-07-16T19:37:06;4.55;;;2.22;;
70067;SDS011;57425;51.616;6.680;2023-07-16T19:39:33;4.15;;;2.08;;
70067;SDS011;57425;51.616;6.680;2023-07-16T19:41:58;3.50;;;2.20;;
70067;SDS011;57425;51.616;6.680;2023-07-16T19:44:24;10.75;;;2.28;;
70067;SDS011;57425;51.616;6.680;2023-07-16T19:46:50;4.18;;;1.63;;
70067;SDS011;57425;51.616;6.680;2023-07-16T19:49:15;7.38;;;2.15;;
70067;SDS011;57425;51.616;6.680;2023-07-16T19:51:42;3.17;;;1.80;;
70067;SDS011;57425;51.616;6.680;2023-07-16T19:54:08;5.82;;;2.17;;
70067;SDS011;57425;51.616;6.680;2023-07-16T19:56:34;5.47;;;1.92;;
70067;SDS011;57425;51.616;6.680;2023-07-16T19:59:00;7.45;;;1.92;;
70067;SDS011;57425;51.616;6.680;2023-07-16T20:01:25;4.47;;;2.15;;
70067;SDS011;57425;51.616;6.680;2023-07-16T20:03:51;6.40;;;1.90;;
70067;SDS011;57425;51.616;6.680;2023-07-16T20:06:17;4.13;;;1.80;;
70067;SDS011;57425;51.616;6.680;2023-07-16T20:08:42;2.33;;;1.55;;
70067;SDS011;57425;51.616;6.680;2023-07-16T20:11:08;8.85;;;2.88;;
70067;SDS011;57425;51.616;6.680;2023-07-16T20:13:34;6.15;;;2.53;;
70067;SDS011;57425;51.616;6.680;2023-07-16T20:16:00;4.60;;;2.47;;
70067;SDS011;57425;51.616;6.680;2023-07-16T20:18:25;3.50;;;1.70;;
70067;SDS011;57425;51.616;6.680;2023-07-16T20:20:51;3.05;;;1.67;;
70067;SDS011;57425;51.616;6.680;2023-07-16T20:23:18;4.53;;;1.77;;
70067;SDS011;57425;51.616;6.680;2023-07-16T20:25:44;4.22;;;2.10;;
70067;SDS011;57425;51.616;6.680;2023-07-16T20:28:15;2.80;;;1.40;;
70067;SDS011;57425;51.616;6.680;2023-07-16T20:30:44;3.60;;;1.58;;
70067;SDS011;57425;51.616;6.680;2023-07-16T20:33:11;2.03;;;1.42;;
70067;SDS011;57425;51.616;6.680;2023-07-16T20:35:38;4.13;;;1.17;;
70067;SDS011;57425;51.616;6.680;2023-07-16T20:38:04;3.45;;;1.88;;
70067;SDS011;57425;51.616;6.680;2023-07-16T20:40:32;2.47;;;1.52;;
70067;SDS011;57425;51.616;6.680;2023-07-16T20:42:58;2.38;;;1.45;;
70067;SDS011;57425;51.616;6.680;2023-07-16T20:45:25;2.25;;;1.20;;
70067;SDS011;57425;51.616;6.680;2023-07-16T20:47:54;4.10;;;1.60;;
70067;SDS011;57425;51.616;6.680;2023-07-16T20:50:22;5.50;;;1.88;;
70067;SDS011;57425;51.616;6.680;2023-07-16T20:52:53;3.00;;;1.50;;
70067;SDS011;57425;51.616;6.680;2023-07-16T20:55:21;4.25;;;1.70;;
70067;SDS011;57425;51.616;6.680;2023-07-16T20:57:48;3.38;;;1.50;;
70067;SDS011;57425;51.616;6.680;2023-07-16T21:00:15;5.82;;;1.75;;
70067;SDS011;57425;51.616;6.680;2023-07-16T21:02:47;5.68;;;1.60;;
70067;SDS011;57425;51.616;6.680;2023-07-16T21:05:14;3.67;;;1.50;;
70067;SDS011;57425;51.616;6.680;2023-07-16T21:07:40;2.50;;;1.27;;
70067;SDS011;57425;51.616;6.680;2023-07-16T21:10:07;5.85;;;1.40;;
70067;SDS011;57425;51.616;6.680;2023-07-16T21:12:34;3.13;;;1.17;;
70067;SDS011;57425;51.616;6.680;2023-07-16T21:15:01;3.40;;;2.03;;
70067;SDS011;57425;51.616;6.680;2023-07-16T21:17:29;2.00;;;1.45;;
70067;SDS011;57425;51.616;6.680;2023-07-16T21:19:54;1.88;;;1.25;;
70067;SDS011;57425;51.616;6.680;2023-07-16T21:22:25;4.70;;;1.88;;
70067;SDS011;57425;51.616;6.680;2023-07-16T21:24:52;3.28;;;1.58;;
70067;SDS011;57425;51.616;6.680;2023-07-16T21:27:25;2.47;;;1.13;;
70067;SDS011;57425;51.616;6.680;2023-07-16T21:29:52;2.65;;;1.40;;
70067;SDS011;57425;51.616;6.680;2023-07-16T21:32:22;3.00;;;1.20;;
70067;SDS011;57425;51.616;6.680;2023-07-16T21:34:49;2.72;;;1.58;;
70067;SDS011;57425;51.616;6.680;2023-07-16T21:37:16;3.80;;;1.65;;
70067;SDS011;57425;51.616;6.680;2023-07-16T21:39:42;3.92;;;1.75;;
70067;SDS011;57425;51.616;6.680;2023-07-16T21:42:08;5.32;;;1.65;;
70067;SDS011;57425;51.616;6.680;2023-07-16T21:44:34;2.50;;;1.50;;
70067;SDS011;57425;51.616;6.680;2023-07-16T21:47:00;7.43;;;2.10;;
70067;SDS011;57425;51.616;6.680;2023-07-16T21:49:25;5.85;;;1.42;;
70067;SDS011;57425;51.616;6.680;2023-07-16T21:51:51;3.08;;;1.67;;
70067;SDS011;57425;51.616;6.680;2023-07-16T21:54:20;2.40;;;1.67;;
70067;SDS011;57425;51.616;6.680;2023-07-16T21:56:46;1.88;;;1.20;;
70067;SDS011;57425;51.616;6.680;2023-07-16T21:59:12;6.93;;;1.60;;
70067;SDS011;57425;51.616;6.680;2023-07-16T22:01:38;5.47;;;1.83;;
70067;SDS011;57425;51.616;6.680;2023-07-16T22:04:03;5.75;;;1.45;;
70067;SDS011;57425;51.616;6.680;2023-07-16T22:06:30;3.90;;;1.40;;
70067;SDS011;57425;51.616;6.680;2023-07-16T22:08:56;4.38;;;1.90;;
70067;SDS011;57425;51.616;6.680;2023-07-16T22:11:22;4.00;;;1.90;;
70067;SDS011;57425;51.616;6.680;2023-07-16T22:13:49;5.40;;;1.30;;
70067;SDS011;57425;51.616;6.680;2023-07-16T22:16:16;1.92;;;1.60;;
70067;SDS011;57425;51.616;6.680;2023-07-16T22:18:42;2.28;;;1.38;;
70067;SDS011;57425;51.616;6.680;2023-07-16T22:21:08;4.03;;;1.70;;
70067;SDS011;57425;51.616;6.680;2023-07-16T22:23:35;9.00;;;2.10;;
70067;SDS011;57425;51.616;6.680;2023-07-16T22:26:01;4.97;;;1.42;;
70067;SDS011;57425;51.616;6.680;2023-07-16T22:28:28;4.35;;;1.33;;
70067;SDS011;57425;51.616;6.680;2023-07-16T22:30:54;3.03;;;1.58;;
70067;SDS011;57425;51.616;6.680;2023-07-16T22:33:19;3.55;;;1.77;;
70067;SDS011;57425;51.616;6.680;2023-07-16T22:35:45;3.10;;;1.67;;
70067;SDS011;57425;51.616;6.680;2023-07-16T22:38:12;3.75;;;1.60;;
70067;SDS011;57425;51.616;6.680;2023-07-16T22:40:37;3.70;;;1.55;;
70067;SDS011;57425;51.616;6.680;2023-07-16T22:43:03;4.38;;;1.25;;
70067;SDS011;57425;51.616;6.680;2023-07-16T22:45:29;4.35;;;1.40;;
70067;SDS011;57425;51.616;6.680;2023-07-16T22:47:55;5.78;;;1.52;;
70067;SDS011;57425;51.616;6.680;2023-07-16T22:50:21;3.42;;;1.38;;
70067;SDS011;57425;51.616;6.680;2023-07-16T22:52:47;2.45;;;1.67;;
70067;SDS011;57425;51.616;6.680;2023-07-16T22:55:13;3.88;;;1.50;;
70067;SDS011;57425;51.616;6.680;2023-07-16T22:57:39;2.80;;;1.30;;
70067;SDS011;57425;51.616;6.680;2023-07-16T23:00:05;2.42;;;1.02;;
70067;SDS011;57425;51.616;6.680;2023-07-16T23:02:34;2.17;;;1.20;;
70067;SDS011;57425;51.616;6.680;2023-07-16T23:04:59;4.13;;;1.40;;
70067;SDS011;57425;51.616;6.680;2023-07-16T23:07:25;4.45;;;1.45;;
70067;SDS011;57425;51.616;6.680;2023-07-16T23:09:51;6.20;;;1.52;;
70067;SDS011;57425;51.616;6.680;2023-07-16T23:12:17;4.72;;;1.60;;
70067;SDS011;57425;51.616;6.680;2023-07-16T23:14:44;7.65;;;1.92;;
70067;SDS011;57425;51.616;6.680;2023-07-16T23:17:10;2.97;;;1.80;;
70067;SDS011;57425;51.616;6.680;2023-07-16T23:19:36;6.05;;;1.90;;
70067;SDS011;57425;51.616;6.680;2023-07-16T23:22:02;4.53;;;1.35;;
70067;SDS011;57425;51.616;6.680;2023-07-16T23:24:28;4.32;;;1.65;;
70067;SDS011;57425;51.616;6.680;2023-07-16T23:26:56;4.88;;;1.60;;
70067;SDS011;57425;51.616;6.680;2023-07-16T23:29:21;3.13;;;1.80;;
70067;SDS011;57425;51.616;6.680;2023-07-16T23:31:47;6.55;;;1.73;;
70067;SDS011;57425;51.616;6.680;2023-07-16T23:34:12;2.88;;;1.42;;
70067;SDS011;57425;51.616;6.680;2023-07-16T23:36:38;5.18;;;1.77;;
70067;SDS011;57425;51.616;6.680;2023-07-16T23:39:04;2.78;;;1.48;;
70067;SDS011;57425;51.616;6.680;2023-07-16T23:41:29;2.20;;;1.30;;
70067;SDS011;57425;51.616;6.680;2023-07-16T23:43:55;2.08;;;1.05;;
70067;SDS011;57425;51.616;6.680;2023-07-16T23:46:21;6.82;;;1.98;;
70067;SDS011;57425;51.616;6.680;2023-07-16T23:48:48;13.07;;;2.00;;
70067;SDS011;57425;51.616;6.680;2023-07-16T23:51:13;3.88;;;1.65;;
70067;SDS011;57425;51.616;6.680;2023-07-16T23:53:39;6.68;;;1.60;;
70067;SDS011;57425;51.616;6.680;2023-07-16T23:56:05;4.43;;;1.65;;
70067;SDS011;57425;51.616;6.680;2023-07-16T23:58:31;2.63;;;1.65;;
